Segovia, Texas
Current Conditions -  °F | °C
As of 6:51 PM on Wednesday 22 Oct 2014 (Local Time) from KJCT Reporting Station
Clear Clear  
Wind Chill: 72°   Ceiling: Unl
Heat Index: 72°   Visibility: 9mi
Dew Point: 52°   Wind: 5mph
Humidity: 49%   Direction: 170°S
Pressure: 30.1"   Gusts: NA
Location:  30.4083°N, 99.5794°W
Report Text: KJCT 222351Z AUTO 17004KT 9SM CLR 22/11 A3010 RMK AO2 SLP164 60000 T02220111 10250 20222 53006
Loading
Personal Weather Stations






























Interactive Weather Map
Tropical Storm Tracking
New forecast layout! Learn more

10-Day Weather Forecast

Advertisements
Track Severe Weather on mobile